sensor_id;sensor_type;location;lat;lon;timestamp;P1;durP1;ratioP1;P2;durP2;ratioP2
21589;SDS011;10957;50.968;6.828;2022-11-20T00:00:15;5.40;;;5.20;;
21589;SDS011;10957;50.968;6.828;2022-11-20T00:05:16;6.00;;;5.70;;
21589;SDS011;10957;50.968;6.828;2022-11-20T00:10:18;5.83;;;5.60;;
21589;SDS011;10957;50.968;6.828;2022-11-20T00:15:18;5.50;;;5.30;;
21589;SDS011;10957;50.968;6.828;2022-11-20T00:20:19;6.40;;;5.90;;
21589;SDS011;10957;50.968;6.828;2022-11-20T00:25:20;6.20;;;5.90;;
21589;SDS011;10957;50.968;6.828;2022-11-20T00:30:21;6.97;;;6.67;;
21589;SDS011;10957;50.968;6.828;2022-11-20T00:35:22;5.20;;;5.00;;
21589;SDS011;10957;50.968;6.828;2022-11-20T00:40:22;7.03;;;6.63;;
21589;SDS011;10957;50.968;6.828;2022-11-20T00:45:23;5.73;;;5.50;;
21589;SDS011;10957;50.968;6.828;2022-11-20T00:50:24;5.60;;;5.40;;
21589;SDS011;10957;50.968;6.828;2022-11-20T00:55:26;5.70;;;5.50;;
21589;SDS011;10957;50.968;6.828;2022-11-20T01:00:26;5.50;;;5.30;;
21589;SDS011;10957;50.968;6.828;2022-11-20T01:05:27;6.00;;;5.70;;
21589;SDS011;10957;50.968;6.828;2022-11-20T01:10:28;5.30;;;5.10;;
21589;SDS011;10957;50.968;6.828;2022-11-20T01:15:29;6.03;;;5.73;;
21589;SDS011;10957;50.968;6.828;2022-11-20T01:20:29;5.70;;;5.50;;
21589;SDS011;10957;50.968;6.828;2022-11-20T01:25:34;6.10;;;5.80;;
21589;SDS011;10957;50.968;6.828;2022-11-20T01:30:34;6.00;;;5.70;;
21589;SDS011;10957;50.968;6.828;2022-11-20T01:35:35;5.63;;;5.43;;
21589;SDS011;10957;50.968;6.828;2022-11-20T01:40:36;5.50;;;5.30;;
21589;SDS011;10957;50.968;6.828;2022-11-20T01:51:01;5.80;;;5.53;;
21589;SDS011;10957;50.968;6.828;2022-11-20T01:56:05;5.70;;;5.50;;
21589;SDS011;10957;50.968;6.828;2022-11-20T02:01:10;7.80;;;7.40;;
21589;SDS011;10957;50.968;6.828;2022-11-20T02:06:14;5.70;;;5.50;;
21589;SDS011;10957;50.968;6.828;2022-11-20T02:11:41;6.07;;;5.77;;
21589;SDS011;10957;50.968;6.828;2022-11-20T02:16:46;5.90;;;5.60;;
21589;SDS011;10957;50.968;6.828;2022-11-20T02:27:13;6.23;;;5.93;;
21589;SDS011;10957;50.968;6.828;2022-11-20T02:32:17;5.40;;;5.20;;
21589;SDS011;10957;50.968;6.828;2022-11-20T02:37:30;5.40;;;5.20;;
21589;SDS011;10957;50.968;6.828;2022-11-20T02:42:35;5.80;;;5.60;;
21589;SDS011;10957;50.968;6.828;2022-11-20T02:47:36;5.60;;;5.40;;
21589;SDS011;10957;50.968;6.828;2022-11-20T02:52:37;6.30;;;6.00;;
21589;SDS011;10957;50.968;6.828;2022-11-20T02:57:38;6.07;;;5.77;;
21589;SDS011;10957;50.968;6.828;2022-11-20T03:02:38;6.07;;;5.77;;
21589;SDS011;10957;50.968;6.828;2022-11-20T03:07:39;6.07;;;5.77;;
21589;SDS011;10957;50.968;6.828;2022-11-20T03:12:40;5.70;;;5.50;;
21589;SDS011;10957;50.968;6.828;2022-11-20T03:17:40;6.50;;;6.20;;
21589;SDS011;10957;50.968;6.828;2022-11-20T03:22:41;6.07;;;5.77;;
21589;SDS011;10957;50.968;6.828;2022-11-20T03:27:42;5.60;;;5.40;;
21589;SDS011;10957;50.968;6.828;2022-11-20T03:32:42;5.70;;;5.50;;
21589;SDS011;10957;50.968;6.828;2022-11-20T03:37:43;6.20;;;5.90;;
21589;SDS011;10957;50.968;6.828;2022-11-20T03:42:45;6.03;;;5.70;;
21589;SDS011;10957;50.968;6.828;2022-11-20T03:47:46;5.80;;;5.60;;
21589;SDS011;10957;50.968;6.828;2022-11-20T03:52:47;5.40;;;5.20;;
21589;SDS011;10957;50.968;6.828;2022-11-20T03:57:47;5.80;;;5.60;;
21589;SDS011;10957;50.968;6.828;2022-11-20T04:02:48;6.20;;;5.90;;
21589;SDS011;10957;50.968;6.828;2022-11-20T04:07:49;5.50;;;5.30;;
21589;SDS011;10957;50.968;6.828;2022-11-20T04:12:49;5.37;;;5.17;;
21589;SDS011;10957;50.968;6.828;2022-11-20T04:17:50;5.80;;;5.50;;
21589;SDS011;10957;50.968;6.828;2022-11-20T04:22:52;6.20;;;5.90;;
21589;SDS011;10957;50.968;6.828;2022-11-20T04:27:54;6.53;;;6.13;;
21589;SDS011;10957;50.968;6.828;2022-11-20T04:32:55;6.10;;;5.80;;
21589;SDS011;10957;50.968;6.828;2022-11-20T04:37:56;5.83;;;5.60;;
21589;SDS011;10957;50.968;6.828;2022-11-20T04:42:56;6.27;;;5.97;;
21589;SDS011;10957;50.968;6.828;2022-11-20T04:47:57;6.33;;;6.03;;
21589;SDS011;10957;50.968;6.828;2022-11-20T04:52:58;6.17;;;5.87;;
21589;SDS011;10957;50.968;6.828;2022-11-20T04:57:58;6.97;;;6.60;;
21589;SDS011;10957;50.968;6.828;2022-11-20T05:02:59;6.07;;;5.77;;
21589;SDS011;10957;50.968;6.828;2022-11-20T05:08:00;6.70;;;6.40;;
21589;SDS011;10957;50.968;6.828;2022-11-20T05:13:01;6.03;;;5.73;;
21589;SDS011;10957;50.968;6.828;2022-11-20T05:18:01;6.43;;;6.13;;
21589;SDS011;10957;50.968;6.828;2022-11-20T05:23:02;6.93;;;6.63;;
21589;SDS011;10957;50.968;6.828;2022-11-20T05:28:03;5.80;;;5.50;;
21589;SDS011;10957;50.968;6.828;2022-11-20T05:33:03;6.50;;;6.20;;
21589;SDS011;10957;50.968;6.828;2022-11-20T05:38:04;5.50;;;5.30;;
21589;SDS011;10957;50.968;6.828;2022-11-20T05:43:05;5.80;;;5.60;;
21589;SDS011;10957;50.968;6.828;2022-11-20T05:48:06;6.47;;;6.17;;
21589;SDS011;10957;50.968;6.828;2022-11-20T05:53:06;6.73;;;6.33;;
21589;SDS011;10957;50.968;6.828;2022-11-20T05:58:07;6.00;;;5.70;;
21589;SDS011;10957;50.968;6.828;2022-11-20T06:03:08;6.30;;;6.00;;
21589;SDS011;10957;50.968;6.828;2022-11-20T06:08:08;6.07;;;5.77;;
21589;SDS011;10957;50.968;6.828;2022-11-20T06:13:09;6.30;;;6.00;;
21589;SDS011;10957;50.968;6.828;2022-11-20T06:18:10;6.30;;;6.00;;
21589;SDS011;10957;50.968;6.828;2022-11-20T06:23:10;6.30;;;6.00;;
21589;SDS011;10957;50.968;6.828;2022-11-20T06:28:11;5.90;;;5.60;;
21589;SDS011;10957;50.968;6.828;2022-11-20T06:33:12;6.10;;;5.80;;
21589;SDS011;10957;50.968;6.828;2022-11-20T06:38:12;6.20;;;5.90;;
21589;SDS011;10957;50.968;6.828;2022-11-20T06:43:13;6.97;;;6.50;;
21589;SDS011;10957;50.968;6.828;2022-11-20T06:48:14;6.40;;;6.10;;
21589;SDS011;10957;50.968;6.828;2022-11-20T06:53:15;6.50;;;6.20;;
21589;SDS011;10957;50.968;6.828;2022-11-20T06:58:16;6.43;;;6.13;;
21589;SDS011;10957;50.968;6.828;2022-11-20T07:03:17;6.13;;;5.83;;
21589;SDS011;10957;50.968;6.828;2022-11-20T07:08:18;5.70;;;5.50;;
21589;SDS011;10957;50.968;6.828;2022-11-20T07:13:18;6.60;;;6.20;;
21589;SDS011;10957;50.968;6.828;2022-11-20T07:18:19;6.30;;;6.00;;
21589;SDS011;10957;50.968;6.828;2022-11-20T07:23:21;7.50;;;7.10;;
21589;SDS011;10957;50.968;6.828;2022-11-20T07:28:22;7.00;;;6.63;;
21589;SDS011;10957;50.968;6.828;2022-11-20T07:33:22;6.30;;;6.00;;
21589;SDS011;10957;50.968;6.828;2022-11-20T07:38:23;6.80;;;6.50;;
21589;SDS011;10957;50.968;6.828;2022-11-20T07:43:24;6.90;;;6.60;;
21589;SDS011;10957;50.968;6.828;2022-11-20T07:48:25;6.70;;;6.40;;
21589;SDS011;10957;50.968;6.828;2022-11-20T07:53:26;6.70;;;6.40;;
21589;SDS011;10957;50.968;6.828;2022-11-20T07:58:28;6.60;;;6.30;;
21589;SDS011;10957;50.968;6.828;2022-11-20T08:03:29;7.10;;;6.80;;
21589;SDS011;10957;50.968;6.828;2022-11-20T08:08:30;6.80;;;6.50;;
21589;SDS011;10957;50.968;6.828;2022-11-20T08:13:31;6.70;;;6.40;;
21589;SDS011;10957;50.968;6.828;2022-11-20T08:18:50;6.43;;;6.13;;
21589;SDS011;10957;50.968;6.828;2022-11-20T08:23:51;6.50;;;6.20;;
21589;SDS011;10957;50.968;6.828;2022-11-20T08:28:55;7.37;;;7.03;;
21589;SDS011;10957;50.968;6.828;2022-11-20T08:33:57;6.07;;;5.77;;
21589;SDS011;10957;50.968;6.828;2022-11-20T08:38:58;6.53;;;6.23;;
21589;SDS011;10957;50.968;6.828;2022-11-20T08:43:59;5.73;;;5.47;;
21589;SDS011;10957;50.968;6.828;2022-11-20T08:49:02;5.50;;;5.30;;
21589;SDS011;10957;50.968;6.828;2022-11-20T08:54:07;6.13;;;5.83;;
21589;SDS011;10957;50.968;6.828;2022-11-20T08:59:08;6.00;;;5.70;;
21589;SDS011;10957;50.968;6.828;2022-11-20T09:04:09;6.10;;;5.80;;
21589;SDS011;10957;50.968;6.828;2022-11-20T09:09:10;7.10;;;6.67;;
21589;SDS011;10957;50.968;6.828;2022-11-20T09:14:10;6.30;;;6.00;;
21589;SDS011;10957;50.968;6.828;2022-11-20T09:19:11;6.20;;;5.90;;
21589;SDS011;10957;50.968;6.828;2022-11-20T09:24:12;6.77;;;6.37;;
21589;SDS011;10957;50.968;6.828;2022-11-20T09:29:13;7.73;;;7.13;;
21589;SDS011;10957;50.968;6.828;2022-11-20T09:34:13;5.70;;;5.50;;
21589;SDS011;10957;50.968;6.828;2022-11-20T09:39:14;6.13;;;5.83;;
21589;SDS011;10957;50.968;6.828;2022-11-20T09:55:01;6.03;;;5.73;;
21589;SDS011;10957;50.968;6.828;2022-11-20T10:00:03;6.47;;;6.10;;
21589;SDS011;10957;50.968;6.828;2022-11-20T10:05:14;6.50;;;6.20;;
21589;SDS011;10957;50.968;6.828;2022-11-20T10:10:16;6.57;;;6.28;;
21589;SDS011;10957;50.968;6.828;2022-11-20T10:20:46;5.90;;;5.63;;
21589;SDS011;10957;50.968;6.828;2022-11-20T10:26:03;5.93;;;5.63;;
21589;SDS011;10957;50.968;6.828;2022-11-20T10:32:09;5.82;;;5.53;;
21589;SDS011;10957;50.968;6.828;2022-11-20T10:36:52;5.55;;;5.35;;
21589;SDS011;10957;50.968;6.828;2022-11-20T10:42:03;7.30;;;6.90;;
21589;SDS011;10957;50.968;6.828;2022-11-20T10:47:15;6.30;;;6.00;;
21589;SDS011;10957;50.968;6.828;2022-11-20T10:57:56;5.50;;;5.28;;
21589;SDS011;10957;50.968;6.828;2022-11-20T11:03:20;6.13;;;5.83;;
21589;SDS011;10957;50.968;6.828;2022-11-20T11:08:24;6.00;;;5.70;;
21589;SDS011;10957;50.968;6.828;2022-11-20T11:13:29;6.00;;;5.70;;
21589;SDS011;10957;50.968;6.828;2022-11-20T11:18:31;6.10;;;5.80;;
21589;SDS011;10957;50.968;6.828;2022-11-20T11:23:43;6.15;;;5.85;;
21589;SDS011;10957;50.968;6.828;2022-11-20T11:28:52;6.25;;;5.95;;
21589;SDS011;10957;50.968;6.828;2022-11-20T11:34:13;6.73;;;6.43;;
21589;SDS011;10957;50.968;6.828;2022-11-20T11:39:16;6.60;;;6.30;;
21589;SDS011;10957;50.968;6.828;2022-11-20T11:44:20;6.38;;;6.07;;
21589;SDS011;10957;50.968;6.828;2022-11-20T11:49:46;7.70;;;6.33;;
21589;SDS011;10957;50.968;6.828;2022-11-20T11:54:53;5.82;;;5.60;;
21589;SDS011;10957;50.968;6.828;2022-11-20T12:00:10;6.45;;;6.15;;
21589;SDS011;10957;50.968;6.828;2022-11-20T12:10:41;5.83;;;5.57;;
21589;SDS011;10957;50.968;6.828;2022-11-20T12:15:49;5.63;;;5.43;;
21589;SDS011;10957;50.968;6.828;2022-11-20T12:26:40;6.40;;;6.10;;
21589;SDS011;10957;50.968;6.828;2022-11-20T12:42:53;6.40;;;6.10;;
21589;SDS011;10957;50.968;6.828;2022-11-20T13:04:23;8.75;;;7.95;;
21589;SDS011;10957;50.968;6.828;2022-11-20T13:09:32;9.48;;;8.77;;
21589;SDS011;10957;50.968;6.828;2022-11-20T13:19:37;5.45;;;5.25;;
21589;SDS011;10957;50.968;6.828;2022-11-20T13:24:49;5.22;;;5.03;;
21589;SDS011;10957;50.968;6.828;2022-11-20T13:35:33;6.30;;;5.95;;
21589;SDS011;10957;50.968;6.828;2022-11-20T13:40:37;6.38;;;6.07;;
21589;SDS011;10957;50.968;6.828;2022-11-20T13:46:04;5.80;;;5.50;;
21589;SDS011;10957;50.968;6.828;2022-11-20T14:01:53;6.70;;;6.30;;
21589;SDS011;10957;50.968;6.828;2022-11-20T14:06:54;6.05;;;5.75;;
21589;SDS011;10957;50.968;6.828;2022-11-20T14:11:56;6.35;;;5.97;;
21589;SDS011;10957;50.968;6.828;2022-11-20T14:22:25;5.82;;;5.57;;
21589;SDS011;10957;50.968;6.828;2022-11-20T14:27:26;6.10;;;5.80;;
21589;SDS011;10957;50.968;6.828;2022-11-20T14:32:28;5.55;;;5.35;;
21589;SDS011;10957;50.968;6.828;2022-11-20T14:37:32;5.40;;;5.20;;
21589;SDS011;10957;50.968;6.828;2022-11-20T14:42:34;5.43;;;5.22;;
21589;SDS011;10957;50.968;6.828;2022-11-20T14:47:35;5.93;;;5.63;;
21589;SDS011;10957;50.968;6.828;2022-11-20T14:52:35;6.90;;;6.43;;
21589;SDS011;10957;50.968;6.828;2022-11-20T14:57:36;6.88;;;6.47;;
21589;SDS011;10957;50.968;6.828;2022-11-20T15:02:44;6.35;;;6.05;;
21589;SDS011;10957;50.968;6.828;2022-11-20T15:07:47;7.70;;;7.30;;
21589;SDS011;10957;50.968;6.828;2022-11-20T15:12:51;6.18;;;5.88;;
21589;SDS011;10957;50.968;6.828;2022-11-20T15:17:57;7.85;;;7.30;;
21589;SDS011;10957;50.968;6.828;2022-11-20T15:22:58;7.40;;;7.00;;
21589;SDS011;10957;50.968;6.828;2022-11-20T15:27:59;6.88;;;6.57;;
21589;SDS011;10957;50.968;6.828;2022-11-20T15:33:00;9.63;;;8.95;;
21589;SDS011;10957;50.968;6.828;2022-11-20T15:38:01;8.18;;;7.68;;
21589;SDS011;10957;50.968;6.828;2022-11-20T15:43:02;7.10;;;6.80;;
21589;SDS011;10957;50.968;6.828;2022-11-20T15:48:03;8.32;;;7.93;;
21589;SDS011;10957;50.968;6.828;2022-11-20T15:53:05;6.90;;;6.60;;
21589;SDS011;10957;50.968;6.828;2022-11-20T15:58:05;7.10;;;6.80;;
21589;SDS011;10957;50.968;6.828;2022-11-20T16:03:08;7.03;;;6.72;;
21589;SDS011;10957;50.968;6.828;2022-11-20T16:08:10;8.18;;;7.68;;
21589;SDS011;10957;50.968;6.828;2022-11-20T16:13:12;6.75;;;6.45;;
21589;SDS011;10957;50.968;6.828;2022-11-20T16:18:36;7.20;;;6.90;;
21589;SDS011;10957;50.968;6.828;2022-11-20T16:23:37;7.38;;;7.07;;
21589;SDS011;10957;50.968;6.828;2022-11-20T16:28:37;8.35;;;7.90;;
21589;SDS011;10957;50.968;6.828;2022-11-20T16:33:38;7.70;;;7.30;;
21589;SDS011;10957;50.968;6.828;2022-11-20T16:38:39;8.13;;;7.72;;
21589;SDS011;10957;50.968;6.828;2022-11-20T16:43:43;7.95;;;7.55;;
21589;SDS011;10957;50.968;6.828;2022-11-20T16:49:12;8.52;;;8.02;;
21589;SDS011;10957;50.968;6.828;2022-11-20T16:54:13;8.60;;;8.20;;
21589;SDS011;10957;50.968;6.828;2022-11-20T16:59:14;8.30;;;7.90;;
21589;SDS011;10957;50.968;6.828;2022-11-20T17:04:15;8.20;;;7.80;;
21589;SDS011;10957;50.968;6.828;2022-11-20T17:09:16;8.60;;;8.20;;
21589;SDS011;10957;50.968;6.828;2022-11-20T17:14:17;8.40;;;8.00;;
21589;SDS011;10957;50.968;6.828;2022-11-20T17:19:18;8.20;;;7.80;;
21589;SDS011;10957;50.968;6.828;2022-11-20T17:24:19;7.75;;;7.35;;
21589;SDS011;10957;50.968;6.828;2022-11-20T17:29:20;7.80;;;7.40;;
21589;SDS011;10957;50.968;6.828;2022-11-20T17:34:23;8.00;;;7.60;;
21589;SDS011;10957;50.968;6.828;2022-11-20T17:39:24;8.70;;;8.25;;
21589;SDS011;10957;50.968;6.828;2022-11-20T17:44:24;8.30;;;7.90;;
21589;SDS011;10957;50.968;6.828;2022-11-20T17:49:25;8.40;;;8.00;;
21589;SDS011;10957;50.968;6.828;2022-11-20T17:54:26;8.95;;;8.55;;
21589;SDS011;10957;50.968;6.828;2022-11-20T17:59:26;9.85;;;9.07;;
21589;SDS011;10957;50.968;6.828;2022-11-20T18:04:27;9.23;;;8.75;;
21589;SDS011;10957;50.968;6.828;2022-11-20T18:09:28;9.50;;;9.00;;
21589;SDS011;10957;50.968;6.828;2022-11-20T18:14:29;9.25;;;8.75;;
21589;SDS011;10957;50.968;6.828;2022-11-20T18:19:35;8.68;;;8.27;;
21589;SDS011;10957;50.968;6.828;2022-11-20T18:24:37;8.90;;;8.50;;
21589;SDS011;10957;50.968;6.828;2022-11-20T18:29:38;8.90;;;8.50;;
21589;SDS011;10957;50.968;6.828;2022-11-20T18:34:39;9.55;;;9.05;;
21589;SDS011;10957;50.968;6.828;2022-11-20T18:39:40;9.35;;;8.85;;
21589;SDS011;10957;50.968;6.828;2022-11-20T18:44:41;9.32;;;8.82;;
21589;SDS011;10957;50.968;6.828;2022-11-20T18:49:51;10.32;;;9.63;;
21589;SDS011;10957;50.968;6.828;2022-11-20T18:54:54;9.60;;;9.10;;
21589;SDS011;10957;50.968;6.828;2022-11-20T18:59:56;9.02;;;8.63;;
21589;SDS011;10957;50.968;6.828;2022-11-20T19:05:00;8.60;;;8.20;;
21589;SDS011;10957;50.968;6.828;2022-11-20T19:10:03;9.82;;;9.32;;
21589;SDS011;10957;50.968;6.828;2022-11-20T19:15:05;9.25;;;8.75;;
21589;SDS011;10957;50.968;6.828;2022-11-20T19:20:06;9.43;;;8.93;;
21589;SDS011;10957;50.968;6.828;2022-11-20T19:25:07;8.80;;;8.40;;
21589;SDS011;10957;50.968;6.828;2022-11-20T19:30:08;8.93;;;8.52;;
21589;SDS011;10957;50.968;6.828;2022-11-20T19:35:09;9.23;;;8.75;;
21589;SDS011;10957;50.968;6.828;2022-11-20T19:40:10;9.98;;;9.48;;
21589;SDS011;10957;50.968;6.828;2022-11-20T19:45:11;9.35;;;8.85;;
21589;SDS011;10957;50.968;6.828;2022-11-20T19:50:12;9.43;;;8.93;;
21589;SDS011;10957;50.968;6.828;2022-11-20T19:55:12;9.05;;;8.65;;
21589;SDS011;10957;50.968;6.828;2022-11-20T20:00:13;9.25;;;8.80;;
21589;SDS011;10957;50.968;6.828;2022-11-20T20:05:15;8.50;;;8.10;;
21589;SDS011;10957;50.968;6.828;2022-11-20T20:10:15;9.07;;;8.68;;
21589;SDS011;10957;50.968;6.828;2022-11-20T20:15:17;8.95;;;8.52;;
21589;SDS011;10957;50.968;6.828;2022-11-20T20:20:18;9.15;;;8.73;;
21589;SDS011;10957;50.968;6.828;2022-11-20T20:25:18;9.10;;;8.70;;
21589;SDS011;10957;50.968;6.828;2022-11-20T20:30:19;8.25;;;7.85;;
21589;SDS011;10957;50.968;6.828;2022-11-20T20:35:20;8.70;;;8.30;;
21589;SDS011;10957;50.968;6.828;2022-11-20T20:40:20;9.45;;;8.77;;
21589;SDS011;10957;50.968;6.828;2022-11-20T20:45:21;7.38;;;7.07;;
21589;SDS011;10957;50.968;6.828;2022-11-20T20:50:22;8.00;;;7.60;;
21589;SDS011;10957;50.968;6.828;2022-11-20T20:55:23;6.80;;;6.50;;
21589;SDS011;10957;50.968;6.828;2022-11-20T21:00:24;7.72;;;7.35;;
21589;SDS011;10957;50.968;6.828;2022-11-20T21:05:25;8.60;;;7.82;;
21589;SDS011;10957;50.968;6.828;2022-11-20T21:10:26;7.50;;;7.20;;
21589;SDS011;10957;50.968;6.828;2022-11-20T21:15:27;7.20;;;6.90;;
21589;SDS011;10957;50.968;6.828;2022-11-20T21:20:27;7.10;;;6.80;;
21589;SDS011;10957;50.968;6.828;2022-11-20T21:25:47;7.05;;;6.75;;
21589;SDS011;10957;50.968;6.828;2022-11-20T21:30:47;7.35;;;7.05;;
21589;SDS011;10957;50.968;6.828;2022-11-20T21:35:48;6.90;;;6.60;;
21589;SDS011;10957;50.968;6.828;2022-11-20T21:40:49;8.02;;;7.63;;
21589;SDS011;10957;50.968;6.828;2022-11-20T21:45:49;7.63;;;7.22;;
21589;SDS011;10957;50.968;6.828;2022-11-20T21:50:55;6.80;;;6.50;;
21589;SDS011;10957;50.968;6.828;2022-11-20T21:56:00;8.20;;;7.80;;
21589;SDS011;10957;50.968;6.828;2022-11-20T22:01:10;7.40;;;7.10;;
21589;SDS011;10957;50.968;6.828;2022-11-20T22:06:11;7.65;;;7.28;;
21589;SDS011;10957;50.968;6.828;2022-11-20T22:11:13;8.10;;;7.70;;
21589;SDS011;10957;50.968;6.828;2022-11-20T22:16:15;8.10;;;7.70;;
21589;SDS011;10957;50.968;6.828;2022-11-20T22:21:16;9.15;;;8.65;;
21589;SDS011;10957;50.968;6.828;2022-11-20T22:26:20;9.40;;;8.90;;
21589;SDS011;10957;50.968;6.828;2022-11-20T22:31:26;9.73;;;9.23;;
21589;SDS011;10957;50.968;6.828;2022-11-20T22:36:29;10.57;;;9.98;;
21589;SDS011;10957;50.968;6.828;2022-11-20T22:41:30;9.60;;;9.10;;
21589;SDS011;10957;50.968;6.828;2022-11-20T22:46:32;10.32;;;9.73;;
21589;SDS011;10957;50.968;6.828;2022-11-20T22:51:35;8.60;;;8.20;;
21589;SDS011;10957;50.968;6.828;2022-11-20T22:56:38;8.70;;;8.30;;
21589;SDS011;10957;50.968;6.828;2022-11-20T23:01:40;11.25;;;10.65;;
21589;SDS011;10957;50.968;6.828;2022-11-20T23:06:41;8.90;;;8.50;;
21589;SDS011;10957;50.968;6.828;2022-11-20T23:11:41;9.50;;;9.00;;
21589;SDS011;10957;50.968;6.828;2022-11-20T23:16:42;9.90;;;9.40;;
21589;SDS011;10957;50.968;6.828;2022-11-20T23:21:43;10.00;;;9.50;;
21589;SDS011;10957;50.968;6.828;2022-11-20T23:26:44;11.18;;;10.57;;
21589;SDS011;10957;50.968;6.828;2022-11-20T23:31:47;9.73;;;9.23;;
21589;SDS011;10957;50.968;6.828;2022-11-20T23:36:47;9.27;;;8.77;;
21589;SDS011;10957;50.968;6.828;2022-11-20T23:41:48;8.98;;;8.57;;
21589;SDS011;10957;50.968;6.828;2022-11-20T23:46:49;9.02;;;8.63;;
21589;SDS011;10957;50.968;6.828;2022-11-20T23:51:49;10.00;;;9.50;;
21589;SDS011;10957;50.968;6.828;2022-11-20T23:56:50;9.82;;;9.32;;
